createdAt,value
2023-01-19T00:00:56.805Z,2.10
2023-01-19T00:03:23.547Z,2.00
2023-01-19T00:05:50.295Z,2.00
2023-01-19T00:08:17.578Z,2.00
2023-01-19T00:10:51.085Z,1.90
2023-01-19T00:13:18.220Z,1.80
2023-01-19T00:15:45.534Z,1.80
2023-01-19T00:18:12.367Z,1.70
2023-01-19T00:20:40.482Z,1.70
2023-01-19T00:23:08.188Z,1.70
2023-01-19T00:25:35.811Z,1.60
2023-01-19T00:28:02.577Z,1.60
2023-01-19T00:30:29.679Z,1.60
2023-01-19T00:32:56.629Z,1.60
2023-01-19T00:35:23.401Z,1.60
2023-01-19T00:37:50.152Z,1.70
2023-01-19T00:40:17.785Z,1.70
2023-01-19T00:42:44.775Z,1.80
2023-01-19T00:45:16.843Z,1.80
2023-01-19T00:47:43.625Z,1.80
2023-01-19T00:50:13.090Z,1.90
2023-01-19T00:52:40.930Z,1.80
2023-01-19T00:55:09.577Z,1.90
2023-01-19T00:57:36.336Z,1.90
2023-01-19T01:00:06.455Z,1.90
2023-01-19T01:02:34.101Z,1.80
2023-01-19T01:05:02.897Z,1.80
2023-01-19T01:07:31.024Z,1.80
2023-01-19T01:09:58.394Z,1.70
2023-01-19T01:12:25.376Z,1.80
2023-01-19T01:14:52.097Z,1.90
2023-01-19T01:17:25.066Z,1.80
2023-01-19T01:19:52.783Z,1.80
2023-01-19T01:22:19.648Z,1.70
2023-01-19T01:24:46.568Z,1.70
2023-01-19T01:27:13.449Z,1.60
2023-01-19T01:29:41.305Z,1.60
2023-01-19T01:32:08.830Z,1.50
2023-01-19T01:34:35.752Z,1.50
2023-01-19T01:37:02.968Z,1.50
2023-01-19T01:39:29.864Z,1.50
2023-01-19T01:41:58.647Z,1.50
2023-01-19T01:44:49.543Z,1.50
2023-01-19T01:47:38.539Z,1.40
2023-01-19T01:50:17.352Z,1.60
2023-01-19T01:53:06.387Z,1.50
2023-01-19T01:55:38.051Z,1.40
2023-01-19T01:58:06.193Z,1.50
2023-01-19T02:00:54.590Z,1.40
2023-01-19T02:03:24.788Z,1.50
2023-01-19T02:05:53.643Z,1.50
2023-01-19T02:08:47.086Z,1.50
2023-01-19T02:11:32.995Z,1.50
2023-01-19T02:13:59.842Z,1.50
2023-01-19T02:16:26.642Z,1.40
2023-01-19T02:18:53.407Z,1.40
2023-01-19T02:21:33.930Z,1.50
2023-01-19T02:24:03.251Z,1.40
2023-01-19T02:26:42.745Z,1.40
2023-01-19T02:29:12.459Z,1.50
2023-01-19T02:31:42.714Z,1.50
2023-01-19T02:34:12.912Z,1.50
2023-01-19T02:36:54.963Z,1.60
2023-01-19T02:39:39.376Z,1.60
2023-01-19T02:42:17.190Z,1.60
2023-01-19T02:44:47.129Z,1.60
2023-01-19T02:47:15.016Z,1.60
2023-01-19T02:49:41.815Z,1.60
2023-01-19T02:52:15.967Z,1.50
2023-01-19T02:55:15.553Z,1.50
2023-01-19T02:58:12.009Z,1.50
2023-01-19T03:01:08.662Z,1.50
2023-01-19T03:03:43.728Z,1.50
2023-01-19T03:06:33.122Z,1.50
2023-01-19T03:09:50.248Z,1.60
2023-01-19T03:12:46.145Z,1.50
2023-01-19T03:15:18.912Z,1.50
2023-01-19T03:17:50.356Z,1.50
2023-01-19T03:20:22.898Z,1.50
2023-01-19T03:22:55.942Z,1.50
2023-01-19T03:25:24.480Z,1.50
2023-01-19T03:27:54.699Z,1.50
2023-01-19T03:30:27.292Z,1.50
2023-01-19T03:33:03.404Z,1.50
2023-01-19T03:35:33.912Z,1.60
2023-01-19T03:38:03.193Z,1.60
2023-01-19T03:40:33.131Z,1.50
2023-01-19T03:43:02.727Z,1.50
2023-01-19T03:45:33.507Z,1.50
2023-01-19T03:48:00.496Z,1.60
2023-01-19T03:50:30.533Z,1.60
2023-01-19T03:53:14.137Z,1.60
2023-01-19T03:55:45.512Z,1.60
2023-01-19T03:58:13.308Z,1.60
2023-01-19T04:00:41.647Z,1.60
2023-01-19T04:03:13.704Z,1.60
2023-01-19T04:05:40.529Z,1.60
2023-01-19T04:08:07.404Z,1.60
2023-01-19T04:10:34.282Z,1.60
2023-01-19T04:13:02.799Z,1.60
2023-01-19T04:15:30.757Z,1.60
2023-01-19T04:18:00.822Z,1.60
2023-01-19T04:20:28.443Z,1.60
2023-01-19T04:22:59.656Z,1.60
2023-01-19T04:25:27.875Z,1.60
2023-01-19T04:27:55.390Z,1.70
2023-01-19T04:30:22.877Z,1.70
2023-01-19T04:32:49.743Z,1.70
2023-01-19T04:35:17.123Z,1.70
2023-01-19T04:37:47.343Z,1.70
2023-01-19T04:40:16.349Z,1.70
2023-01-19T04:42:45.050Z,1.60
2023-01-19T04:45:15.432Z,1.70
2023-01-19T04:47:45.057Z,1.70
2023-01-19T04:50:12.499Z,1.60
2023-01-19T04:52:39.513Z,1.60
2023-01-19T04:55:07.500Z,1.60
2023-01-19T04:57:34.637Z,1.70
2023-01-19T05:00:01.677Z,1.70
2023-01-19T05:02:28.445Z,1.70
2023-01-19T05:04:55.332Z,1.70
2023-01-19T05:07:23.845Z,1.70
2023-01-19T05:09:50.839Z,1.70
2023-01-19T05:12:17.800Z,1.70
2023-01-19T05:14:44.780Z,1.70
2023-01-19T05:17:13.746Z,1.60
2023-01-19T05:19:43.460Z,1.60
2023-01-19T05:22:15.930Z,1.60
2023-01-19T05:24:56.725Z,1.60
2023-01-19T05:30:23.901Z,1.60
2023-01-19T05:33:28.835Z,1.60
2023-01-19T05:36:26.873Z,1.70
2023-01-19T05:43:43.687Z,1.60
2023-01-19T05:49:18.970Z,1.80
2023-01-19T05:53:52.608Z,1.80
2023-01-19T05:58:38.309Z,1.90
2023-01-19T06:01:13.683Z,1.90
2023-01-19T06:03:42.243Z,1.80
2023-01-19T06:06:10.566Z,1.80
2023-01-19T06:08:37.506Z,1.90
2023-01-19T06:11:07.474Z,1.80
2023-01-19T06:13:34.729Z,1.80
2023-01-19T06:16:02.644Z,1.90
2023-01-19T06:18:30.297Z,1.80
2023-01-19T06:21:00.101Z,1.80
2023-01-19T06:23:29.709Z,1.80
2023-01-19T06:25:56.604Z,1.80
2023-01-19T06:28:33.467Z,1.90
2023-01-19T06:31:00.745Z,1.80
2023-01-19T06:33:28.366Z,1.90
2023-01-19T06:35:55.816Z,1.90
2023-01-19T06:38:27.041Z,1.90
2023-01-19T06:40:59.859Z,1.80
2023-01-19T06:43:27.160Z,1.90
2023-01-19T06:45:54.970Z,1.80
2023-01-19T06:48:22.186Z,1.90
2023-01-19T06:50:50.197Z,1.90
2023-01-19T06:53:21.398Z,1.90
2023-01-19T06:55:49.715Z,1.80
2023-01-19T06:58:16.883Z,2.00
2023-01-19T07:00:43.792Z,1.90
2023-01-19T07:03:19.857Z,1.90
2023-01-19T07:05:47.197Z,1.90
2023-01-19T07:08:15.827Z,2.00
2023-01-19T07:11:26.317Z,2.00
2023-01-19T07:13:30.320Z,2.00
2023-01-19T07:15:57.200Z,2.00
2023-01-19T07:18:24.029Z,2.00
2023-01-19T07:20:51.657Z,2.10
2023-01-19T07:23:19.650Z,2.10
2023-01-19T07:25:46.687Z,2.10
2023-01-19T07:28:15.769Z,2.10
2023-01-19T07:30:44.334Z,2.10
2023-01-19T07:33:11.221Z,2.20
2023-01-19T07:35:38.607Z,2.10
2023-01-19T07:38:05.429Z,2.20
2023-01-19T07:40:33.492Z,2.20
2023-01-19T07:43:00.792Z,2.10
2023-01-19T07:45:28.108Z,2.10
2023-01-19T07:47:54.948Z,2.10
2023-01-19T07:50:24.594Z,2.20
2023-01-19T07:52:54.355Z,2.20
2023-01-19T07:55:22.128Z,2.10
2023-01-19T07:57:52.305Z,2.10
2023-01-19T08:00:22.805Z,2.20
2023-01-19T08:02:52.284Z,2.10
2023-01-19T08:05:20.318Z,2.20
2023-01-19T08:07:47.495Z,2.20
2023-01-19T08:10:15.534Z,2.20
2023-01-19T08:12:42.965Z,2.20
2023-01-19T08:15:10.757Z,2.30
2023-01-19T08:17:39.114Z,2.20
2023-01-19T08:20:06.835Z,2.30
2023-01-19T08:22:36.069Z,2.30
2023-01-19T08:25:06.821Z,2.30
2023-01-19T08:27:35.875Z,2.30
2023-01-19T08:30:05.444Z,2.40
2023-01-19T08:32:35.721Z,2.30
2023-01-19T08:35:02.642Z,2.30
2023-01-19T08:37:29.756Z,2.30
2023-01-19T08:39:56.490Z,2.40
2023-01-19T08:42:23.367Z,2.40
2023-01-19T08:44:58.056Z,2.40
2023-01-19T08:47:25.504Z,2.40
2023-01-19T08:49:52.396Z,2.40
2023-01-19T08:52:19.188Z,2.40
2023-01-19T08:54:46.277Z,2.40
2023-01-19T08:57:15.917Z,2.50
2023-01-19T08:59:45.197Z,2.50
2023-01-19T09:02:14.866Z,2.50
2023-01-19T09:04:44.185Z,2.50
2023-01-19T09:07:11.293Z,2.50
2023-01-19T09:09:43.415Z,2.50
2023-01-19T09:12:11.524Z,2.60
2023-01-19T09:14:39.705Z,2.60
2023-01-19T09:17:07.974Z,2.60
2023-01-19T09:19:36.174Z,2.60
2023-01-19T09:22:05.695Z,2.60
2023-01-19T09:24:32.515Z,2.60
2023-01-19T09:26:59.412Z,2.60
2023-01-19T09:29:26.264Z,2.70
2023-01-19T09:31:53.037Z,2.70
2023-01-19T09:34:20.548Z,2.70
2023-01-19T09:36:47.529Z,2.70
2023-01-19T09:39:14.296Z,2.70
2023-01-19T09:41:49.092Z,2.70
2023-01-19T09:44:36.104Z,2.80
2023-01-19T09:47:13.005Z,2.80
2023-01-19T09:49:44.593Z,2.80
2023-01-19T09:52:14.698Z,2.80
2023-01-19T09:54:52.986Z,2.90
2023-01-19T09:57:21.530Z,2.90
2023-01-19T09:59:50.837Z,2.90
2023-01-19T10:02:57.168Z,2.90
2023-01-19T10:05:29.921Z,2.90
2023-01-19T10:08:12.972Z,3.00
2023-01-19T10:10:43.104Z,3.00
2023-01-19T10:13:21.853Z,3.00
2023-01-19T10:16:38.294Z,3.10
2023-01-19T10:19:17.236Z,3.10
2023-01-19T10:21:46.430Z,3.20
2023-01-19T10:24:38.799Z,3.20
2023-01-19T10:27:15.463Z,3.20
2023-01-19T10:29:42.277Z,3.20
2023-01-19T10:32:22.653Z,3.20
2023-01-19T10:34:51.023Z,3.30
2023-01-19T10:37:17.672Z,3.20
2023-01-19T10:39:56.208Z,3.20
2023-01-19T10:42:23.371Z,3.20
2023-01-19T10:44:50.307Z,3.30
2023-01-19T10:47:23.202Z,3.30
2023-01-19T10:49:51.302Z,3.20
2023-01-19T10:52:24.093Z,3.30
2023-01-19T10:54:51.265Z,3.20
2023-01-19T10:57:43.573Z,3.20
2023-01-19T11:00:37.750Z,3.30
2023-01-19T11:03:21.176Z,3.20
2023-01-19T11:05:47.932Z,3.30
2023-01-19T11:08:31.001Z,3.30
2023-01-19T11:11:05.127Z,3.30
2023-01-19T11:13:32.311Z,3.10
2023-01-19T11:16:20.493Z,3.10
2023-01-19T11:18:52.359Z,3.10
2023-01-19T11:21:26.487Z,3.10
2023-01-19T11:23:58.807Z,3.10
2023-01-19T11:26:34.810Z,3.10
2023-01-19T11:29:03.800Z,3.10
2023-01-19T11:31:34.704Z,3.10
2023-01-19T11:34:21.937Z,3.10
2023-01-19T11:37:02.085Z,3.10
2023-01-19T11:39:47.053Z,3.00
2023-01-19T11:42:15.339Z,3.10
2023-01-19T11:44:57.649Z,3.10
2023-01-19T11:47:43.500Z,3.10
2023-01-19T11:50:13.335Z,3.10
2023-01-19T11:52:50.606Z,3.10
2023-01-19T11:55:35.273Z,3.10
2023-01-19T11:58:04.290Z,3.10
2023-01-19T12:00:42.889Z,3.00
2023-01-19T12:03:09.719Z,3.00
2023-01-19T12:05:40.502Z,3.00
2023-01-19T12:08:17.863Z,2.90
2023-01-19T12:10:47.370Z,2.90
2023-01-19T12:13:25.828Z,2.90
2023-01-19T12:16:07.357Z,2.90
2023-01-19T12:18:44.786Z,2.90
2023-01-19T12:21:11.499Z,2.90
2023-01-19T12:24:16.397Z,2.90
2023-01-19T12:26:54.429Z,2.90
2023-01-19T12:29:24.868Z,2.90
2023-01-19T12:32:13.423Z,3.00
2023-01-19T12:34:45.095Z,3.00
2023-01-19T12:37:39.575Z,3.00
2023-01-19T12:40:27.922Z,2.90
2023-01-19T12:43:03.805Z,2.90
2023-01-19T12:45:39.824Z,2.90
2023-01-19T12:48:24.097Z,2.80
2023-01-19T12:50:51.084Z,2.80
2023-01-19T12:53:21.186Z,2.90
2023-01-19T12:55:59.921Z,2.90
2023-01-19T12:58:27.166Z,2.80
2023-01-19T13:01:18.892Z,2.80
2023-01-19T13:04:09.337Z,2.90
2023-01-19T13:06:48.297Z,2.90
2023-01-19T13:09:35.415Z,2.80
2023-01-19T13:12:19.513Z,2.90
2023-01-19T13:14:46.317Z,2.80
2023-01-19T13:17:24.401Z,2.80
2023-01-19T13:20:22.274Z,2.80
2023-01-19T13:23:17.089Z,2.80
2023-01-19T13:25:49.183Z,2.80
2023-01-19T13:28:18.771Z,2.80
2023-01-19T13:30:55.318Z,2.80
2023-01-19T13:33:25.226Z,2.80
2023-01-19T13:35:54.685Z,2.80
2023-01-19T13:38:23.327Z,2.80
2023-01-19T13:40:50.839Z,2.90
2023-01-19T13:43:32.516Z,2.80
2023-01-19T13:46:00.425Z,2.80
2023-01-19T13:48:27.947Z,2.80
2023-01-19T13:51:07.050Z,2.80
2023-01-19T13:53:34.628Z,2.80
2023-01-19T13:56:18.223Z,2.80
2023-01-19T13:58:58.041Z,2.80
2023-01-19T14:01:28.696Z,2.80
2023-01-19T14:03:55.955Z,2.80
2023-01-19T14:06:43.993Z,2.80
2023-01-19T14:09:20.183Z,2.80
2023-01-19T14:12:05.191Z,2.80
2023-01-19T14:14:32.603Z,2.80
2023-01-19T14:16:59.585Z,2.70
2023-01-19T14:19:26.415Z,2.70
2023-01-19T14:22:02.056Z,2.70
2023-01-19T14:24:32.003Z,2.60
2023-01-19T14:27:19.287Z,2.60
2023-01-19T14:29:50.016Z,2.50
2023-01-19T14:32:18.115Z,2.50
2023-01-19T14:35:12.433Z,2.50
2023-01-19T14:37:47.543Z,2.40
2023-01-19T14:40:20.227Z,2.40
2023-01-19T14:42:54.693Z,2.40
2023-01-19T14:45:25.306Z,2.40
2023-01-19T14:47:57.361Z,2.30
2023-01-19T14:50:30.755Z,2.30
2023-01-19T14:53:04.261Z,2.30
2023-01-19T14:55:50.775Z,2.30
2023-01-19T14:58:19.562Z,2.30
2023-01-19T15:00:47.619Z,2.30
2023-01-19T15:03:14.833Z,2.20
2023-01-19T15:05:46.460Z,2.30
2023-01-19T15:08:23.250Z,2.30
2023-01-19T15:10:50.051Z,2.30
2023-01-19T15:13:22.825Z,2.30
2023-01-19T15:15:49.988Z,2.30
2023-01-19T15:18:26.341Z,2.20
2023-01-19T15:27:45.952Z,2.20
2023-01-19T15:30:21.644Z,2.10
2023-01-19T15:32:48.526Z,2.10
2023-01-19T15:35:23.211Z,2.10
2023-01-19T15:37:50.781Z,2.10
2023-01-19T15:40:19.372Z,2.10
2023-01-19T15:42:46.748Z,2.10
2023-01-19T15:45:34.061Z,2.00
2023-01-19T15:48:10.300Z,2.00
2023-01-19T15:50:41.165Z,2.00
2023-01-19T15:53:11.983Z,2.00
2023-01-19T15:55:42.386Z,1.90
2023-01-19T15:58:09.263Z,1.90
2023-01-19T16:00:36.500Z,1.90
2023-01-19T16:03:03.598Z,1.90
2023-01-19T16:05:42.583Z,1.90
2023-01-19T16:08:11.462Z,1.90
2023-01-19T16:10:38.429Z,1.90
2023-01-19T16:13:05.135Z,1.90
2023-01-19T16:15:36.361Z,1.90
2023-01-19T16:18:05.819Z,1.80
2023-01-19T16:20:32.745Z,1.80
2023-01-19T16:23:14.603Z,1.80
2023-01-19T16:25:42.418Z,1.80
2023-01-19T16:28:09.272Z,1.80
2023-01-19T16:30:41.082Z,1.80
2023-01-19T16:33:16.870Z,1.80
2023-01-19T16:35:45.054Z,1.80
2023-01-19T16:38:14.598Z,1.70
2023-01-19T16:40:44.448Z,1.70
2023-01-19T16:43:12.047Z,1.70
2023-01-19T16:46:00.431Z,1.70
2023-01-19T16:48:27.973Z,1.70
2023-01-19T16:51:21.084Z,1.70
2023-01-19T16:53:50.318Z,1.70
2023-01-19T16:56:23.098Z,1.70
2023-01-19T16:59:29.382Z,1.70
2023-01-19T17:01:47.023Z,1.70
2023-01-19T17:04:14.525Z,1.70
2023-01-19T17:06:41.462Z,1.80
2023-01-19T17:09:09.603Z,1.70
2023-01-19T17:11:46.196Z,1.70
2023-01-19T17:14:15.716Z,1.70
2023-01-19T17:16:43.877Z,1.70
2023-01-19T17:19:15.278Z,1.70
2023-01-19T17:21:48.937Z,1.70
2023-01-19T17:24:16.972Z,1.70
2023-01-19T17:26:47.520Z,1.70
2023-01-19T17:29:15.060Z,1.70
2023-01-19T17:31:44.108Z,1.70
2023-01-19T17:34:13.638Z,1.70
2023-01-19T17:36:41.180Z,1.70
2023-01-19T17:39:31.913Z,1.70
2023-01-19T17:41:59.804Z,1.70
2023-01-19T17:44:27.770Z,1.60
2023-01-19T17:46:59.908Z,1.70
2023-01-19T17:49:29.721Z,1.70
2023-01-19T17:51:59.359Z,1.70
2023-01-19T17:54:28.715Z,1.70
2023-01-19T17:56:57.493Z,1.70
2023-01-19T17:59:27.121Z,1.60
2023-01-19T18:01:54.701Z,1.60
2023-01-19T18:04:21.751Z,1.70
2023-01-19T18:06:50.232Z,1.70
2023-01-19T18:09:17.201Z,1.60
2023-01-19T18:11:51.664Z,1.70
2023-01-19T18:14:23.685Z,1.60
2023-01-19T18:16:50.507Z,1.70
2023-01-19T18:19:24.615Z,1.60
2023-01-19T18:21:54.473Z,1.70
2023-01-19T18:24:23.795Z,1.60
2023-01-19T18:26:50.809Z,1.60
2023-01-19T18:29:20.706Z,1.60
2023-01-19T18:31:54.970Z,1.70
2023-01-19T18:34:25.085Z,1.70
2023-01-19T18:36:51.940Z,1.70
2023-01-19T18:39:20.959Z,1.70
2023-01-19T18:41:50.101Z,1.70
2023-01-19T18:44:23.483Z,1.70
2023-01-19T18:46:50.426Z,1.70
2023-01-19T18:49:24.965Z,1.70
2023-01-19T18:52:01.090Z,1.70
2023-01-19T18:54:27.958Z,1.70
2023-01-19T18:56:57.079Z,1.70
2023-01-19T18:59:23.860Z,1.60
2023-01-19T19:02:02.718Z,1.60
2023-01-19T19:04:29.476Z,1.70
2023-01-19T19:06:59.104Z,1.70
2023-01-19T19:09:25.900Z,1.70
2023-01-19T19:11:59.660Z,1.70
2023-01-19T19:14:26.620Z,1.70
2023-01-19T19:17:13.640Z,1.70
2023-01-19T19:19:40.374Z,1.70
2023-01-19T19:22:07.301Z,1.70
2023-01-19T19:24:34.114Z,1.70
2023-01-19T19:27:04.251Z,1.60
2023-01-19T19:29:31.422Z,1.70
2023-01-19T19:31:58.213Z,1.70
2023-01-19T19:34:30.137Z,1.70
2023-01-19T19:36:56.893Z,1.60
2023-01-19T19:39:32.639Z,1.70
2023-01-19T19:42:02.002Z,1.70
2023-01-19T19:44:28.878Z,1.70
2023-01-19T19:47:04.432Z,1.70
2023-01-19T19:49:31.263Z,1.70
2023-01-19T19:52:06.830Z,1.70
2023-01-19T19:54:33.570Z,1.70
2023-01-19T19:57:05.580Z,1.70
2023-01-19T19:59:40.403Z,1.70
2023-01-19T20:02:12.652Z,1.70
2023-01-19T20:04:39.922Z,1.80
2023-01-19T20:07:10.447Z,1.70
2023-01-19T20:09:40.422Z,1.70
2023-01-19T20:12:19.714Z,1.70
2023-01-19T20:14:47.854Z,1.70
2023-01-19T20:17:14.874Z,1.70
2023-01-19T20:19:41.914Z,1.70
2023-01-19T20:22:10.726Z,1.70
2023-01-19T20:24:43.471Z,1.70
2023-01-19T20:27:11.007Z,1.70
2023-01-19T20:29:40.802Z,1.70
2023-01-19T20:32:08.383Z,1.70
2023-01-19T20:34:42.363Z,1.70
2023-01-19T20:37:17.925Z,1.70
2023-01-19T20:39:45.477Z,1.70
2023-01-19T20:42:18.145Z,1.70
2023-01-19T20:44:47.509Z,1.70
2023-01-19T20:47:14.674Z,1.70
2023-01-19T20:49:45.975Z,1.80
2023-01-19T20:52:13.018Z,1.70
2023-01-19T20:54:40.046Z,1.80
2023-01-19T20:57:06.903Z,1.80
2023-01-19T20:59:36.894Z,1.70
2023-01-19T21:02:06.034Z,1.80
2023-01-19T21:04:32.903Z,1.70
2023-01-19T21:06:59.606Z,1.70
2023-01-19T21:09:26.354Z,1.70
2023-01-19T21:11:55.889Z,1.70
2023-01-19T21:14:23.945Z,1.80
2023-01-19T21:16:50.695Z,1.70
2023-01-19T21:19:18.744Z,1.70
2023-01-19T21:21:45.596Z,1.70
2023-01-19T21:24:12.347Z,1.70
2023-01-19T21:26:39.334Z,1.70
2023-01-19T21:29:06.041Z,1.60
2023-01-19T21:31:32.866Z,1.70
2023-01-19T21:33:59.977Z,1.70
2023-01-19T21:36:27.610Z,1.60
2023-01-19T21:39:00.219Z,1.60
2023-01-19T21:41:28.489Z,1.60
2023-01-19T21:43:55.261Z,1.60
2023-01-19T21:46:32.297Z,1.60
2023-01-19T21:49:04.319Z,1.60
2023-01-19T21:51:33.745Z,1.60
2023-01-19T21:54:01.497Z,1.60
2023-01-19T21:56:29.171Z,1.60
2023-01-19T21:58:57.090Z,1.60
2023-01-19T22:01:24.559Z,1.60
2023-01-19T22:03:56.122Z,1.60
2023-01-19T22:06:26.055Z,1.50
2023-01-19T22:08:55.154Z,1.60
2023-01-19T22:11:24.994Z,1.50
2023-01-19T22:13:52.075Z,1.50
2023-01-19T22:16:21.906Z,1.50
2023-01-19T22:18:59.643Z,1.50
2023-01-19T22:21:31.829Z,1.50
2023-01-19T22:24:00.759Z,1.50
2023-01-19T22:26:34.495Z,1.50
2023-01-19T22:29:02.987Z,1.50
2023-01-19T22:31:30.754Z,1.50
2023-01-19T22:34:00.646Z,1.50
2023-01-19T22:36:32.528Z,1.50
2023-01-19T22:39:03.837Z,1.50
2023-01-19T22:41:41.347Z,1.50
2023-01-19T22:44:11.988Z,1.40
2023-01-19T22:46:38.990Z,1.40
2023-01-19T22:49:09.126Z,1.40
2023-01-19T22:51:36.196Z,1.40
2023-01-19T22:54:03.339Z,1.40
2023-01-19T22:56:32.306Z,1.40
2023-01-19T22:59:00.121Z,1.50
2023-01-19T23:01:33.883Z,1.40
2023-01-19T23:04:04.613Z,1.40
2023-01-19T23:06:34.515Z,1.40
2023-01-19T23:09:04.525Z,1.40
2023-01-19T23:11:42.574Z,1.40
2023-01-19T23:14:13.658Z,1.40
2023-01-19T23:16:40.429Z,1.40
2023-01-19T23:19:07.575Z,1.50
2023-01-19T23:21:34.449Z,1.40
2023-01-19T23:24:04.124Z,1.40
2023-01-19T23:26:37.995Z,1.40
2023-01-19T23:29:08.372Z,1.40
2023-01-19T23:31:37.125Z,1.40
2023-01-19T23:34:07.117Z,1.40
2023-01-19T23:36:35.720Z,1.40
2023-01-19T23:39:14.561Z,1.40
2023-01-19T23:41:41.427Z,1.50
2023-01-19T23:44:08.389Z,1.50
2023-01-19T23:46:35.612Z,1.40
2023-01-19T23:49:02.435Z,1.40
2023-01-19T23:51:31.130Z,1.40
2023-01-19T23:54:00.498Z,1.40
2023-01-19T23:56:28.639Z,1.40
2023-01-19T23:59:00.166Z,1.40
